• Join FlightAware (Why Join?)
  • Login
  • US Flag 
12:38AM EDT


 

Airport Tracker/Info


-or-


 

Live Flight TrackerFlight Track Log ✈ N470BC ✈ 21-Jun-2013 ✈ KGAI - KBDR

Flight Track Log - Related Links

Times and Time Zones

All times are in EDT time to prevent confusion due to time zone crossing. See the N470BC flight status page for this flight to view local times or setup timezone preferences in your user account.

Time Position Orientation Groundspeed Altitude Reporting Facility
EDT Latitude Longitude Course Direction KTS MPH feet Rate Location/Type
04:30PM 39.1667 -77.1333 360° North 100 115 1,200  Level Potomac TRACON
04:31PM 39.2000 -77.1333 360° North 121 139 2,100 840 Climbing Potomac TRACON
04:32PM 39.2333 -77.1333 360° North 128 147 2,900 720 Climbing Potomac TRACON
04:33PM 39.2667 -77.1500 339° North 140 161 3,600 660 Climbing Potomac TRACON
04:34PM 39.3000 -77.1667 339° North 139 160 4,300 600 Climbing Potomac TRACON
04:35PM 39.3333 -77.1500 21° North 135 155 4,900 600 Climbing Potomac TRACON
04:36PM 39.3667 -77.1167 38° Northeast 139 160 5,500 540 Climbing Potomac TRACON
04:37PM 39.3833 -77.0833 57° Northeast 139 160 6,000 540 Climbing Potomac TRACON
04:38PM 39.4167 -77.0500 38° Northeast 136 157 6,600 480 Climbing Potomac TRACON
04:39PM 39.4500 -77.0167 38° Northeast 147 169 7,000 180 Climbing Potomac TRACON
04:40PM 39.4833 -76.9833 38° Northeast 164 189 7,000  Level Potomac TRACON
04:41PM 39.5167 -76.9500 38° Northeast 173 199 7,000  Level Potomac TRACON
04:42PM 39.5667 -76.9000 38° Northeast 169 194 7,000  Level Potomac TRACON
04:43PM 39.6000 -76.8667 38° Northeast 172 198 7,000  Level Potomac TRACON
04:44PM 39.6333 -76.8167 49° Northeast 178 205 7,000  Level Potomac TRACON
04:45PM 39.6667 -76.7833 38° Northeast 175 201 7,000  Level Potomac TRACON
04:47PM 39.7293 -76.7160 40° Northeast  Level FlightAware Approximate
04:54PM 39.9800 -76.4398 41° Northeast  Level FlightAware Approximate
04:55PM 40.0153 -76.3995 41° Northeast  Level FlightAware Approximate
04:56PM 40.0506 -76.3591 41° Northeast  Level FlightAware Approximate
04:57PM 40.0859 -76.3187 41° Northeast  Level FlightAware Approximate
04:58PM 40.0724 -76.2614 107° East  Level FlightAware Approximate
04:59PM 40.0922 -76.2074 65° Northeast  Level Estimated
05:00PM 40.1058 -76.1501 73° East  Level FlightAware Approximate
05:01PM 40.1194 -76.0929 73° East  Level FlightAware Approximate
05:02PM 40.1329 -76.0356 73° East  Level FlightAware Approximate
05:02PM 40.1667 -75.9833 64° Northeast 179 206 7,500  Level Philadelphia TRACON
05:03PM 40.1465 -75.9783 73° East  Level FlightAware Approximate
05:03PM 40.2000 -75.8833 66° East 179 206 7,500  Level Philadelphia TRACON
05:04PM 40.1600 -75.9210 73° East  Level FlightAware Approximate
05:04PM 40.2167 -75.8333 66° East 178 205 7,500  Level Philadelphia TRACON
05:05PM 40.1734 -75.8636 73° East  Level FlightAware Approximate
05:05PM 40.2500 -75.7667 57° Northeast 180 207 7,500  Level Philadelphia TRACON
05:06PM 40.1869 -75.8062 73° East  Level FlightAware Approximate
05:06PM 40.2667 -75.7167 66° East 181 208 7,500  Level Philadelphia TRACON
05:07PM 40.2073 -75.7525 64° Northeast  Level Estimated
05:07PM 40.2833 -75.6500 72° East 179 206 7,500  Level Philadelphia TRACON
05:08PM 40.3167 -75.5833 57° Northeast 179 206 7,500  Level Philadelphia TRACON
05:09PM 40.3333 -75.5333 66° East 178 205 7,500  Level Philadelphia TRACON
05:10PM 40.3500 -75.4833 66° East 179 206 7,500  Level Philadelphia TRACON
05:11PM 40.3667 -75.4333 66° East 179 206 7,500  Level Philadelphia TRACON
05:12PM 40.3833 -75.3667 72° East 178 205 7,500  Level Philadelphia TRACON
05:13PM 40.4167 -75.3000 57° Northeast 181 208 7,500  Level Philadelphia TRACON
05:14PM 40.4333 -75.2500 66° East 178 205 7,500  Level Philadelphia TRACON
05:15PM 40.4500 -75.2000 66° East 178 205 7,500  Level Philadelphia TRACON
05:17PM 40.4833 -75.0833 69° East 174 200 7,500  Level New York TRACON
05:18PM 40.5167 -75.0333 49° Northeast 172 198 7,500  Level New York TRACON
05:19PM 40.5333 -74.9833 66° East 172 198 7,500  Level New York TRACON
05:20PM 40.5500 -74.9167 72° East 168 193 7,500  Level New York TRACON
05:21PM 40.5667 -74.8667 66° East 170 196 7,500  Level New York TRACON
05:22PM 40.5833 -74.8000 72° East 170 196 7,500  Level New York TRACON
05:23PM 40.6167 -74.7500 49° Northeast 177 204 7,500  Level New York TRACON
05:24PM 40.6333 -74.6833 72° East 172 198 7,500  Level New York TRACON
05:25PM 40.6500 -74.6333 66° East 172 198 7,500  Level New York TRACON
05:26PM 40.6667 -74.5667 72° East 173 199 7,500  Level New York TRACON
05:27PM 40.6833 -74.5167 66° East 169 194 7,500  Level New York TRACON
05:28PM 40.7167 -74.4667 49° Northeast 168 193 7,500  Level New York TRACON
05:29PM 40.7333 -74.4167 66° East 167 192 7,500  Level New York TRACON
05:30PM 40.7500 -74.3500 72° East 166 191 7,500  Level New York TRACON
05:31PM 40.7667 -74.3000 66° East 168 193 7,500  Level New York TRACON
05:32PM 40.7833 -74.2500 66° East 172 198 7,500  Level New York TRACON
05:33PM 40.8000 -74.1833 72° East 173 199 7,500  Level New York TRACON
05:34PM 40.8333 -74.1333 49° Northeast 168 193 7,500  Level New York TRACON
05:35PM 40.8500 -74.0667 72° East 169 194 7,500  Level New York TRACON
05:36PM 40.8667 -74.0167 66° East 173 199 7,500  Level New York TRACON
05:37PM 40.8833 -73.9500 72° East 172 198 7,500  Level New York TRACON
05:38PM 40.9000 -73.9000 66° East 170 196 7,500  Level New York TRACON
05:39PM 40.9167 -73.8500 66° East 172 198 7,500  Level New York TRACON
05:40PM 40.9333 -73.7833 72° East 170 196 7,500  Level New York TRACON
05:41PM 40.9667 -73.7333 49° Northeast 172 198 7,500  Level New York TRACON
05:42PM 40.9833 -73.6667 72° East 173 199 7,500  Level New York TRACON
05:43PM 41.0000 -73.6167 66° East 170 196 7,500  Level New York TRACON
05:44PM 41.0167 -73.5667 66° East 169 194 7,500 -300 Level New York TRACON
05:45PM 41.0333 -73.5000 72° East 184 212 6,900 -900 Descending New York TRACON
05:46PM 41.0667 -73.4333 56° Northeast 206 237 5,700 -1,260 Descending New York TRACON
05:47PM 41.0833 -73.3667 72° East 204 235 4,400 -1,320 Descending New York TRACON
05:49PM 41.1054 -73.2674 74° East  Level FlightAware Approximate
05:56PM 41.1500 -73.1167 66° East  Level FlightAware Approximate
05:57PM 41.1635 -73.1262 66° East  Level Estimated
05:58PM 41.1635 -73.1262 66° East  Level Estimated
05:59PM 41.1635 -73.1262 66° East  Level Estimated
06:00PM 41.1635 -73.1262 66° East  Level Estimated
06:01PM 41.1635 -73.1262 66° East  Level Estimated
06:02PM 41.1635 -73.1262 66° East  Level Estimated
06:03PM 41.1635 -73.1262 66° East  Level Estimated
06:04PM 41.1635 -73.1262 66° East  Level Estimated
06:05PM 41.1635 -73.1262 66° East  Level Estimated
06:06PM 41.1635 -73.1262 66° East  Level Estimated
06:07PM 41.1635 -73.1262 66° East  Level Estimated
06:08PM 41.1635 -73.1262 66° East  Level Estimated
06:09PM 41.1635 -73.1262 66° East  Level Estimated
06:10PM 41.1635 -73.1262 66° East  Level Estimated
06:11PM 41.1635 -73.1262 66° East  Level Estimated